Time;durP1;ratioP1;P1;durP2;ratioP2;P2;SDS_P1;SDS_P2;PMS_P1;PMS_P2;Temp;Humidity;BMP_temperature;BMP_pressure;BME280_temperature;BME280_humidity;BME280_pressure;Samples;Min_cycle;Max_cycle;Signal;HPM_P1;HPM_P2
2022/03/09 00:02:03;;;;;;;5.15;2.20;;;;;;;;;;5030605;28;20045;-63
2022/03/09 00:04:31;;;;;;;6.88;2.65;;;;;;;;;;5029652;28;20034;-61
2022/03/09 00:06:57;;;;;;;4.55;2.28;;;;;;;;;;5028884;28;20053;-62
2022/03/09 00:09:23;;;;;;;3.47;2.35;;;;;;;;;;5030098;28;20045;-61
2022/03/09 00:11:49;;;;;;;7.75;2.80;;;;;;;;;;5030096;28;20045;-62
2022/03/09 00:14:15;;;;;;;5.45;2.42;;;;;;;;;;5028517;28;20042;-62
2022/03/09 00:16:41;;;;;;;5.47;3.00;;;;;;;;;;5028558;28;20037;-60
2022/03/09 00:19:07;;;;;;;4.05;2.78;;;;;;;;;;5030181;28;20045;-61
2022/03/09 00:21:33;;;;;;;4.03;2.60;;;;;;;;;;5029978;28;20060;-61
2022/03/09 00:23:59;;;;;;;6.32;2.83;;;;;;;;;;5029256;28;20442;-60
2022/03/09 00:26:25;;;;;;;4.15;2.78;;;;;;;;;;5029028;28;20124;-60
2022/03/09 00:28:51;;;;;;;3.45;2.75;;;;;;;;;;5010970;28;20076;-61
2022/03/09 00:31:17;;;;;;;3.38;2.25;;;;;;;;;;5027649;28;20091;-61
2022/03/09 00:33:43;;;;;;;7.10;2.58;;;;;;;;;;5027595;28;20049;-60
2022/03/09 00:36:09;;;;;;;4.47;2.90;;;;;;;;;;5027469;28;20091;-61
2022/03/09 00:38:35;;;;;;;5.93;3.25;;;;;;;;;;5027624;28;20049;-61
2022/03/09 00:41:02;;;;;;;4.95;2.85;;;;;;;;;;5027200;28;20033;-61
2022/03/09 00:43:28;;;;;;;3.80;3.05;;;;;;;;;;5026966;28;20149;-62
2022/03/09 00:45:55;;;;;;;4.07;2.83;;;;;;;;;;5027406;28;20384;-62
2022/03/09 00:48:21;;;;;;;5.10;3.10;;;;;;;;;;5027008;28;20080;-61
2022/03/09 00:50:47;;;;;;;4.95;3.17;;;;;;;;;;5027374;28;20072;-61
2022/03/09 00:53:13;;;;;;;4.03;2.80;;;;;;;;;;5029207;28;20040;-61
2022/03/09 00:55:40;;;;;;;7.68;3.47;;;;;;;;;;5028728;28;20046;-62
2022/03/09 00:58:06;;;;;;;4.15;2.90;;;;;;;;;;5028902;28;20033;-62
2022/03/09 01:00:32;;;;;;;5.45;3.13;;;;;;;;;;5043957;28;20475;-61
2022/03/09 01:02:58;;;;;;;5.00;3.22;;;;;;;;;;5028574;28;20041;-62
2022/03/09 01:05:24;;;;;;;4.22;2.80;;;;;;;;;;5028357;28;20047;-61
2022/03/09 01:07:50;;;;;;;4.72;3.35;;;;;;;;;;5025816;28;20137;-62
2022/03/09 01:10:16;;;;;;;5.32;3.45;;;;;;;;;;5024828;28;20041;-61
2022/03/09 01:12:43;;;;;;;5.05;3.67;;;;;;;;;;5026341;28;20068;-62
2022/03/09 01:15:09;;;;;;;7.03;3.53;;;;;;;;;;5026412;28;20141;-61
2022/03/09 01:17:35;;;;;;;7.93;3.30;;;;;;;;;;5027143;28;20045;-61
2022/03/09 01:20:01;;;;;;;7.05;3.47;;;;;;;;;;5026213;28;20037;-62
2022/03/09 01:22:27;;;;;;;6.50;3.20;;;;;;;;;;5042440;28;20072;-60
2022/03/09 01:24:53;;;;;;;4.85;3.25;;;;;;;;;;5028314;28;20558;-62
2022/03/09 01:27:20;;;;;;;5.78;3.35;;;;;;;;;;5028033;28;20679;-61
2022/03/09 01:29:46;;;;;;;6.07;3.33;;;;;;;;;;5008983;28;20056;-62
2022/03/09 01:32:12;;;;;;;5.28;3.53;;;;;;;;;;5027746;28;20041;-61
2022/03/09 01:34:38;;;;;;;7.57;3.47;;;;;;;;;;5024699;28;20049;-61
2022/03/09 01:37:04;;;;;;;4.72;3.60;;;;;;;;;;5027436;28;20442;-62
2022/03/09 01:39:30;;;;;;;5.82;3.72;;;;;;;;;;5025569;28;20042;-61
2022/03/09 01:41:56;;;;;;;5.07;3.60;;;;;;;;;;5026576;28;20038;-62
2022/03/09 01:44:23;;;;;;;5.35;3.78;;;;;;;;;;5026085;28;20065;-61
2022/03/09 01:46:50;;;;;;;5.07;3.42;;;;;;;;;;5025838;28;20045;-61
2022/03/09 01:49:17;;;;;;;5.97;3.65;;;;;;;;;;5027243;28;20045;-61
2022/03/09 01:51:44;;;;;;;5.50;3.92;;;;;;;;;;5026793;28;20602;-62
2022/03/09 01:54:11;;;;;;;7.72;3.63;;;;;;;;;;5026869;28;20494;-60
2022/03/09 01:56:37;;;;;;;8.02;3.70;;;;;;;;;;5026152;28;20037;-60
2022/03/09 01:59:07;;;;;;;5.80;4.03;;;;;;;;;;5009646;28;20041;-61
2022/03/09 02:01:34;;;;;;;5.38;3.38;;;;;;;;;;5026675;28;20372;-61
2022/03/09 02:04:01;;;;;;;6.82;3.83;;;;;;;;;;5025266;28;20042;-61
2022/03/09 02:06:27;;;;;;;6.72;3.88;;;;;;;;;;5027731;28;20604;-61
2022/03/09 02:11:38;;;;;;;5.38;3.88;;;;;;;;;;5024549;28;20052;-61
2022/03/09 02:14:05;;;;;;;5.90;3.63;;;;;;;;;;5025634;28;20045;-61
2022/03/09 02:16:31;;;;;;;5.50;3.55;;;;;;;;;;5025888;28;20077;-61
2022/03/09 02:19:00;;;;;;;5.95;3.75;;;;;;;;;;5025693;28;20041;-62
2022/03/09 02:21:27;;;;;;;6.47;3.90;;;;;;;;;;5025826;28;20041;-61
2022/03/09 02:23:55;;;;;;;5.65;3.78;;;;;;;;;;5027652;28;20138;-61
2022/03/09 02:26:21;;;;;;;7.55;4.38;;;;;;;;;;5025694;28;20046;-61
2022/03/09 02:28:48;;;;;;;7.00;3.67;;;;;;;;;;5025653;28;20053;-61
2022/03/09 02:31:14;;;;;;;6.05;3.55;;;;;;;;;;5026729;28;20045;-61
2022/03/09 02:33:44;;;;;;;7.70;4.03;;;;;;;;;;5026519;28;20443;-61
2022/03/09 02:36:10;;;;;;;7.65;4.22;;;;;;;;;;5026023;28;20500;-61
2022/03/09 02:38:36;;;;;;;6.88;4.10;;;;;;;;;;5025006;28;20475;-60
2022/03/09 02:41:02;;;;;;;5.80;4.50;;;;;;;;;;5023425;28;20040;-61
2022/03/09 02:43:28;;;;;;;6.28;3.95;;;;;;;;;;5007892;28;20037;-62
2022/03/09 02:45:54;;;;;;;6.95;4.30;;;;;;;;;;5040342;28;20132;-62
2022/03/09 02:48:20;;;;;;;5.35;4.00;;;;;;;;;;5025039;28;20127;-62
2022/03/09 02:50:46;;;;;;;5.40;4.05;;;;;;;;;;5008838;28;20506;-62
2022/03/09 02:53:12;;;;;;;7.75;4.18;;;;;;;;;;5008039;28;20205;-61
2022/03/09 02:55:39;;;;;;;6.38;4.38;;;;;;;;;;5025761;28;20395;-61
2022/03/09 02:58:05;;;;;;;7.38;4.30;;;;;;;;;;5026079;28;20598;-61
2022/03/09 03:00:31;;;;;;;6.93;4.35;;;;;;;;;;5026592;28;20043;-61
2022/03/09 03:02:57;;;;;;;8.18;4.03;;;;;;;;;;5028080;28;20041;-61
2022/03/09 03:05:23;;;;;;;6.95;4.45;;;;;;;;;;5028182;28;20034;-62
2022/03/09 03:07:49;;;;;;;6.57;4.30;;;;;;;;;;5025431;28;20048;-61
2022/03/09 03:10:15;;;;;;;7.72;4.32;;;;;;;;;;5007124;28;20038;-62
2022/03/09 03:12:41;;;;;;;7.47;4.90;;;;;;;;;;5026264;28;20080;-61
2022/03/09 03:15:08;;;;;;;5.60;4.55;;;;;;;;;;5026083;28;20045;-62
2022/03/09 03:17:38;;;;;;;5.72;4.55;;;;;;;;;;5024163;28;20037;-62
2022/03/09 03:20:04;;;;;;;7.72;4.70;;;;;;;;;;5022213;28;20045;-61
2022/03/09 03:22:30;;;;;;;9.13;4.47;;;;;;;;;;5024035;28;20037;-60
2022/03/09 03:24:56;;;;;;;8.60;4.60;;;;;;;;;;5026521;28;20073;-61
2022/03/09 03:27:23;;;;;;;7.72;4.75;;;;;;;;;;5025695;28;20414;-61
2022/03/09 03:29:49;;;;;;;7.20;4.60;;;;;;;;;;5026290;28;20050;-61
2022/03/09 03:32:15;;;;;;;8.32;4.65;;;;;;;;;;5050798;28;20089;-61
2022/03/09 03:34:41;;;;;;;6.10;4.20;;;;;;;;;;5008467;28;20124;-61
2022/03/09 03:37:07;;;;;;;8.43;5.10;;;;;;;;;;5025976;28;20087;-61
2022/03/09 03:39:34;;;;;;;9.13;4.00;;;;;;;;;;5024257;28;20091;-60
2022/03/09 03:42:00;;;;;;;7.47;4.97;;;;;;;;;;5024551;28;20049;-61
2022/03/09 03:44:27;;;;;;;6.20;4.75;;;;;;;;;;5025690;28;20046;-61
2022/03/09 03:46:53;;;;;;;7.43;4.45;;;;;;;;;;5024338;28;20049;-62
2022/03/09 03:49:19;;;;;;;7.05;4.60;;;;;;;;;;5026181;28;20487;-60
2022/03/09 03:51:45;;;;;;;6.78;4.78;;;;;;;;;;5025868;28;20041;-60
2022/03/09 03:54:11;;;;;;;5.30;4.43;;;;;;;;;;5025948;28;20038;-60
2022/03/09 03:56:37;;;;;;;8.20;5.28;;;;;;;;;;5026139;28;20492;-60
2022/03/09 03:59:03;;;;;;;6.82;5.00;;;;;;;;;;5024685;28;20124;-60
2022/03/09 04:01:29;;;;;;;7.53;5.20;;;;;;;;;;5024640;28;20037;-60
2022/03/09 04:03:55;;;;;;;8.43;4.95;;;;;;;;;;5030006;28;20586;-59
2022/03/09 04:06:21;;;;;;;6.13;4.65;;;;;;;;;;5028101;28;20396;-60
2022/03/09 04:08:47;;;;;;;9.15;4.90;;;;;;;;;;5011750;28;20044;-59
2022/03/09 04:11:13;;;;;;;8.75;4.72;;;;;;;;;;5028528;28;20202;-59
2022/03/09 04:13:39;;;;;;;9.70;5.22;;;;;;;;;;5029783;28;20045;-59
2022/03/09 04:16:05;;;;;;;7.55;5.20;;;;;;;;;;5026977;28;20120;-60
2022/03/09 04:18:31;;;;;;;6.78;5.38;;;;;;;;;;5030113;28;20064;-59
2022/03/09 04:20:57;;;;;;;8.25;5.63;;;;;;;;;;5011441;28;20049;-60
2022/03/09 04:23:24;;;;;;;6.90;5.32;;;;;;;;;;5029009;28;20034;-60
2022/03/09 04:25:50;;;;;;;7.13;5.32;;;;;;;;;;5027652;28;20076;-60
2022/03/09 04:28:16;;;;;;;8.63;5.05;;;;;;;;;;5044192;28;20563;-60
2022/03/09 04:30:44;;;;;;;8.60;5.60;;;;;;;;;;5011228;28;20042;-59
2022/03/09 04:33:10;;;;;;;6.80;5.50;;;;;;;;;;5029629;28;20215;-59
2022/03/09 04:35:36;;;;;;;8.38;5.40;;;;;;;;;;5029253;28;20068;-60
2022/03/09 04:38:02;;;;;;;9.23;5.93;;;;;;;;;;5029028;28;20516;-60
2022/03/09 04:40:28;;;;;;;7.43;5.28;;;;;;;;;;5027624;28;20393;-61
2022/03/09 04:42:55;;;;;;;7.60;5.40;;;;;;;;;;5026824;28;20400;-60
2022/03/09 04:45:21;;;;;;;13.73;6.32;;;;;;;;;;5028235;28;20148;-60
2022/03/09 04:47:47;;;;;;;8.65;5.10;;;;;;;;;;5011298;28;20680;-60
2022/03/09 04:50:13;;;;;;;8.05;5.47;;;;;;;;;;5026999;28;20333;-59
2022/03/09 04:52:39;;;;;;;8.10;5.47;;;;;;;;;;5026734;28;20069;-60
2022/03/09 04:55:05;;;;;;;8.27;5.38;;;;;;;;;;5028514;28;20406;-59
2022/03/09 04:57:31;;;;;;;8.32;5.35;;;;;;;;;;5027335;28;20037;-59
2022/03/09 04:59:57;;;;;;;8.55;5.70;;;;;;;;;;5028595;28;20129;-60
2022/03/09 05:02:23;;;;;;;7.38;5.38;;;;;;;;;;5011044;28;20396;-59
2022/03/09 05:04:49;;;;;;;7.43;5.05;;;;;;;;;;5027649;28;20052;-60
2022/03/09 05:07:15;;;;;;;7.22;5.10;;;;;;;;;;5028016;28;20107;-60
2022/03/09 05:09:41;;;;;;;8.63;5.57;;;;;;;;;;5026772;28;20176;-61
2022/03/09 05:12:10;;;;;;;6.55;4.93;;;;;;;;;;5027247;28;20053;-59
2022/03/09 05:14:36;;;;;;;7.60;5.13;;;;;;;;;;5026546;28;20069;-61
2022/03/09 05:17:02;;;;;;;9.43;5.22;;;;;;;;;;5025787;28;20598;-60
2022/03/09 05:19:28;;;;;;;8.38;5.25;;;;;;;;;;5026602;28;20124;-60
2022/03/09 05:21:54;;;;;;;8.27;5.07;;;;;;;;;;5026199;28;20077;-64
2022/03/09 05:24:20;;;;;;;11.82;7.50;;;;;;;;;;5027831;28;20041;-60
2022/03/09 05:26:46;;;;;;;12.85;8.15;;;;;;;;;;5028590;28;20038;-60
2022/03/09 05:29:13;;;;;;;13.88;9.68;;;;;;;;;;5026486;28;20124;-58
2022/03/09 05:31:39;;;;;;;14.85;9.48;;;;;;;;;;5027511;28;20045;-61
2022/03/09 05:34:06;;;;;;;13.50;8.13;;;;;;;;;;5027186;28;20103;-61
2022/03/09 05:36:32;;;;;;;14.90;9.13;;;;;;;;;;5026866;28;20050;-60
2022/03/09 05:38:58;;;;;;;16.35;10.40;;;;;;;;;;5027494;28;20069;-59
2022/03/09 05:41:24;;;;;;;17.63;10.40;;;;;;;;;;5027978;28;20037;-61
2022/03/09 05:43:50;;;;;;;15.80;11.60;;;;;;;;;;5026797;28;20067;-60
2022/03/09 05:46:16;;;;;;;18.15;13.10;;;;;;;;;;5010108;28;20064;-60
2022/03/09 05:48:43;;;;;;;21.00;14.55;;;;;;;;;;5028444;28;20402;-60
2022/03/09 05:51:09;;;;;;;21.90;15.88;;;;;;;;;;5027836;28;20049;-60
2022/03/09 05:53:35;;;;;;;19.05;15.13;;;;;;;;;;5027124;28;20135;-60
2022/03/09 05:56:01;;;;;;;24.17;15.77;;;;;;;;;;5043781;28;20095;-61
2022/03/09 05:58:27;;;;;;;17.35;12.38;;;;;;;;;;5026966;28;20037;-60
2022/03/09 06:00:53;;;;;;;24.90;13.77;;;;;;;;;;5028264;28;20132;-60
2022/03/09 06:03:19;;;;;;;19.58;14.80;;;;;;;;;;5025941;28;20099;-59
2022/03/09 06:05:46;;;;;;;18.65;13.13;;;;;;;;;;5028253;28;20088;-59
2022/03/09 06:08:12;;;;;;;18.45;12.52;;;;;;;;;;5027711;28;20597;-60
2022/03/09 06:10:39;;;;;;;21.95;13.27;;;;;;;;;;5027784;28;20503;-61
2022/03/09 06:13:05;;;;;;;17.83;12.27;;;;;;;;;;5028045;28;20518;-61
2022/03/09 06:15:31;;;;;;;18.83;13.35;;;;;;;;;;5025988;28;20033;-60
2022/03/09 06:17:57;;;;;;;18.63;10.52;;;;;;;;;;5026136;28;20045;-62
2022/03/09 06:20:25;;;;;;;17.85;11.10;;;;;;;;;;5028353;28;20472;-61
2022/03/09 06:22:51;;;;;;;13.73;10.80;;;;;;;;;;5026284;28;20418;-62
2022/03/09 06:25:17;;;;;;;17.50;10.07;;;;;;;;;;5027613;28;20088;-61
2022/03/09 06:27:44;;;;;;;10.07;4.85;;;;;;;;;;5042521;28;20396;-60
2022/03/09 06:30:10;;;;;;;10.02;5.45;;;;;;;;;;5024703;28;20438;-61
2022/03/09 06:32:37;;;;;;;11.57;7.03;;;;;;;;;;5026681;28;20064;-61
2022/03/09 06:35:04;;;;;;;10.07;6.35;;;;;;;;;;5026298;28;20042;-61
2022/03/09 06:37:30;;;;;;;11.95;6.47;;;;;;;;;;5024636;28;20060;-61
2022/03/09 06:39:57;;;;;;;13.82;7.90;;;;;;;;;;5041537;28;20124;-61
2022/03/09 06:42:25;;;;;;;12.90;7.03;;;;;;;;;;5027511;28;20034;-61
2022/03/09 06:44:51;;;;;;;15.25;7.63;;;;;;;;;;5042453;28;20081;-62
2022/03/09 06:47:18;;;;;;;13.68;8.57;;;;;;;;;;5042374;28;20733;-61
2022/03/09 06:49:44;;;;;;;14.88;8.20;;;;;;;;;;5026610;28;20048;-61
2022/03/09 06:52:10;;;;;;;14.50;9.07;;;;;;;;;;5027243;28;20110;-60
2022/03/09 06:54:36;;;;;;;14.30;8.98;;;;;;;;;;5027000;28;20037;-60
2022/03/09 06:57:02;;;;;;;13.95;9.23;;;;;;;;;;5025871;28;20486;-61
2022/03/09 06:59:29;;;;;;;12.95;8.70;;;;;;;;;;5025157;28;20048;-60
2022/03/09 07:01:55;;;;;;;12.93;8.27;;;;;;;;;;5025282;28;20033;-61
2022/03/09 07:04:21;;;;;;;16.50;9.60;;;;;;;;;;5026631;28;20045;-61
2022/03/09 07:06:47;;;;;;;15.60;9.27;;;;;;;;;;5008087;28;20049;-61
2022/03/09 07:09:16;;;;;;;14.48;8.48;;;;;;;;;;5026117;28;20041;-60
2022/03/09 07:11:43;;;;;;;15.70;9.18;;;;;;;;;;5026522;28;20041;-60
2022/03/09 07:14:09;;;;;;;10.00;7.30;;;;;;;;;;5025790;28;20041;-60
2022/03/09 07:16:35;;;;;;;12.20;6.53;;;;;;;;;;5026285;28;20041;-62
2022/03/09 07:19:02;;;;;;;10.98;6.47;;;;;;;;;;5009003;28;20048;-60
2022/03/09 07:21:28;;;;;;;14.85;6.43;;;;;;;;;;5025306;28;20041;-62
2022/03/09 07:23:54;;;;;;;10.15;5.57;;;;;;;;;;5027322;28;20034;-61
2022/03/09 07:26:20;;;;;;;8.85;5.38;;;;;;;;;;5042079;28;20033;-61
2022/03/09 07:28:46;;;;;;;10.25;6.00;;;;;;;;;;5026176;28;20065;-61
2022/03/09 07:31:12;;;;;;;10.02;5.80;;;;;;;;;;5025372;28;20044;-62
2022/03/09 07:33:38;;;;;;;12.07;6.35;;;;;;;;;;5025149;28;20033;-61
2022/03/09 07:36:04;;;;;;;15.90;6.50;;;;;;;;;;5026065;28;20049;-61
2022/03/09 07:38:30;;;;;;;11.18;6.35;;;;;;;;;;5028704;28;20052;-61
2022/03/09 07:40:56;;;;;;;10.02;6.03;;;;;;;;;;5028995;28;20068;-62
2022/03/09 07:43:23;;;;;;;8.77;5.97;;;;;;;;;;5028814;28;20056;-60
2022/03/09 07:45:49;;;;;;;8.68;5.57;;;;;;;;;;5029755;28;20053;-60
2022/03/09 07:48:15;;;;;;;10.48;5.97;;;;;;;;;;5010979;28;20045;-62
2022/03/09 07:50:41;;;;;;;9.57;5.68;;;;;;;;;;5029050;28;20080;-62
2022/03/09 07:53:08;;;;;;;9.05;6.05;;;;;;;;;;5028696;28;20558;-62
2022/03/09 07:55:34;;;;;;;6.78;5.30;;;;;;;;;;5031397;28;20081;-61
2022/03/09 07:58:00;;;;;;;8.77;5.95;;;;;;;;;;5013787;28;20049;-61
2022/03/09 08:00:29;;;;;;;8.13;5.35;;;;;;;;;;5012706;28;20049;-61
2022/03/09 08:02:55;;;;;;;8.60;5.13;;;;;;;;;;5030872;28;20189;-61
2022/03/09 08:05:21;;;;;;;8.52;5.07;;;;;;;;;;5012057;28;20397;-61
2022/03/09 08:07:47;;;;;;;7.95;4.82;;;;;;;;;;5030777;28;20076;-62
2022/03/09 08:10:14;;;;;;;9.27;5.18;;;;;;;;;;5012050;28;20088;-62
2022/03/09 08:12:40;;;;;;;6.00;4.70;;;;;;;;;;5029834;28;20048;-62
2022/03/09 08:15:07;;;;;;;7.55;5.35;;;;;;;;;;5031885;28;20128;-61
2022/03/09 08:17:33;;;;;;;6.88;4.93;;;;;;;;;;5030384;28;20963;-61
2022/03/09 08:19:59;;;;;;;7.95;5.30;;;;;;;;;;5028648;28;20042;-61
2022/03/09 08:22:26;;;;;;;8.68;5.28;;;;;;;;;;5028855;28;20483;-62
2022/03/09 08:24:52;;;;;;;7.85;5.10;;;;;;;;;;5029301;28;20095;-60
2022/03/09 08:27:18;;;;;;;6.40;5.07;;;;;;;;;;5028921;28;20504;-61
2022/03/09 08:29:44;;;;;;;6.28;5.03;;;;;;;;;;5027605;28;20123;-59
2022/03/09 08:32:10;;;;;;;9.57;4.55;;;;;;;;;;5029578;28;20041;-61
2022/03/09 08:34:36;;;;;;;6.25;5.00;;;;;;;;;;5027741;28;20037;-61
2022/03/09 08:37:03;;;;;;;6.30;5.45;;;;;;;;;;5009927;28;20053;-62
2022/03/09 08:39:29;;;;;;;9.70;5.30;;;;;;;;;;5027808;28;20053;-62
2022/03/09 08:41:55;;;;;;;6.15;5.55;;;;;;;;;;5050536;28;20127;-60
2022/03/09 08:44:21;;;;;;;5.85;5.00;;;;;;;;;;5027307;28;20065;-61
2022/03/09 08:46:47;;;;;;;7.30;5.15;;;;;;;;;;5027356;28;20045;-62
2022/03/09 08:49:14;;;;;;;6.32;4.72;;;;;;;;;;5026020;28;20041;-62
2022/03/09 08:51:41;;;;;;;6.45;5.18;;;;;;;;;;5024285;28;20064;-61
2022/03/09 08:54:07;;;;;;;7.90;4.95;;;;;;;;;;5042323;28;20038;-62
2022/03/09 08:56:33;;;;;;;8.45;5.38;;;;;;;;;;5026084;28;20060;-61
2022/03/09 08:58:59;;;;;;;6.50;4.90;;;;;;;;;;5028767;28;20158;-62
2022/03/09 09:01:25;;;;;;;6.07;4.80;;;;;;;;;;5050308;28;20030;-62
2022/03/09 09:03:51;;;;;;;10.07;5.20;;;;;;;;;;5029410;28;20045;-61
2022/03/09 09:06:17;;;;;;;6.75;4.90;;;;;;;;;;5028384;28;20059;-61
2022/03/09 09:08:44;;;;;;;6.28;4.95;;;;;;;;;;5027901;28;20037;-60
2022/03/09 09:11:10;;;;;;;6.72;4.53;;;;;;;;;;5027628;28;20495;-62
2022/03/09 09:13:36;;;;;;;6.80;5.20;;;;;;;;;;5028735;28;20041;-62
2022/03/09 09:16:02;;;;;;;6.47;5.10;;;;;;;;;;5042686;28;20053;-61
2022/03/09 09:18:29;;;;;;;7.72;4.78;;;;;;;;;;5026912;28;20064;-62
2022/03/09 09:20:56;;;;;;;8.63;4.63;;;;;;;;;;5011490;28;20134;-60
2022/03/09 09:23:23;;;;;;;6.43;4.88;;;;;;;;;;5027415;28;20042;-61
2022/03/09 09:25:49;;;;;;;7.95;4.70;;;;;;;;;;5025865;28;20581;-61
2022/03/09 09:28:17;;;;;;;8.18;4.55;;;;;;;;;;5026545;28;20037;-63
2022/03/09 09:30:43;;;;;;;6.10;4.07;;;;;;;;;;5026658;28;20040;-62
2022/03/09 09:33:09;;;;;;;5.65;4.72;;;;;;;;;;5027177;28;20388;-61
2022/03/09 09:35:35;;;;;;;7.88;5.07;;;;;;;;;;5025731;28;20387;-62
2022/03/09 09:38:06;;;;;;;6.20;4.22;;;;;;;;;;5028748;28;20068;-61
2022/03/09 09:40:45;;;;;;;7.07;4.38;;;;;;;;;;5028645;28;20081;-61
2022/03/09 09:43:12;;;;;;;7.38;5.18;;;;;;;;;;5052294;28;20115;-61
2022/03/09 09:45:38;;;;;;;6.43;4.60;;;;;;;;;;5027727;28;20037;-61
2022/03/09 09:48:06;;;;;;;7.38;4.50;;;;;;;;;;5027954;28;20041;-62
2022/03/09 09:50:33;;;;;;;6.78;4.13;;;;;;;;;;5029551;28;20095;-60
2022/03/09 09:52:59;;;;;;;6.45;4.35;;;;;;;;;;5029707;28;20052;-62
2022/03/09 09:55:26;;;;;;;6.97;4.80;;;;;;;;;;5029094;28;20033;-61
2022/03/09 09:57:52;;;;;;;6.75;4.55;;;;;;;;;;5026876;28;20098;-62
2022/03/09 10:00:19;;;;;;;8.05;5.05;;;;;;;;;;5009840;28;20033;-61
2022/03/09 10:02:45;;;;;;;7.05;4.72;;;;;;;;;;5007948;28;20392;-60
2022/03/09 10:05:13;;;;;;;8.10;4.75;;;;;;;;;;5025503;28;20049;-61
2022/03/09 10:07:58;;;;;;;9.13;4.85;;;;;;;;;;5025581;28;20472;-62
2022/03/09 10:10:25;;;;;;;7.03;4.85;;;;;;;;;;5026501;28;20715;-60
2022/03/09 10:12:51;;;;;;;7.53;4.72;;;;;;;;;;5026906;28;20171;-61
2022/03/09 10:15:17;;;;;;;7.90;5.07;;;;;;;;;;5025959;28;20748;-62
2022/03/09 10:17:43;;;;;;;7.05;5.10;;;;;;;;;;5024813;28;20121;-62
2022/03/09 10:20:10;;;;;;;7.03;4.70;;;;;;;;;;5008663;28;20053;-62
2022/03/09 10:22:45;;;;;;;8.85;5.38;;;;;;;;;;5027580;28;20136;-62
2022/03/09 10:25:11;;;;;;;8.57;5.03;;;;;;;;;;5027308;28;20372;-62
2022/03/09 10:27:53;;;;;;;7.55;5.13;;;;;;;;;;5025946;28;20068;-62
2022/03/09 10:30:23;;;;;;;7.10;4.85;;;;;;;;;;5028441;28;20480;-63
2022/03/09 10:32:59;;;;;;;7.55;5.07;;;;;;;;;;5027091;28;20131;-61
2022/03/09 10:35:31;;;;;;;6.07;5.03;;;;;;;;;;5026790;28;20044;-60
2022/03/09 10:38:05;;;;;;;7.93;5.07;;;;;;;;;;5026064;28;20083;-61
2022/03/09 10:40:32;;;;;;;7.53;5.00;;;;;;;;;;5029216;28;20045;-59
2022/03/09 10:43:12;;;;;;;7.75;5.47;;;;;;;;;;5029306;28;20044;-61
2022/03/09 10:46:01;;;;;;;6.90;4.57;;;;;;;;;;5024518;28;20058;-62
2022/03/09 10:48:50;;;;;;;5.78;4.82;;;;;;;;;;5011153;28;20187;-61
2022/03/09 10:51:35;;;;;;;10.00;6.25;;;;;;;;;;5025752;28;20416;-62
2022/03/09 10:54:22;;;;;;;6.93;4.65;;;;;;;;;;5025644;28;20041;-62
2022/03/09 10:56:48;;;;;;;5.20;4.70;;;;;;;;;;5026329;28;20060;-61
2022/03/09 10:59:14;;;;;;;7.18;5.50;;;;;;;;;;5025391;28;20037;-63
2022/03/09 11:01:40;;;;;;;8.63;5.50;;;;;;;;;;5024812;28;20514;-63
2022/03/09 11:04:18;;;;;;;8.00;4.97;;;;;;;;;;5010214;28;20053;-62
2022/03/09 11:06:47;;;;;;;7.00;5.38;;;;;;;;;;5026048;28;20049;-62
2022/03/09 11:09:14;;;;;;;5.47;4.97;;;;;;;;;;5026490;28;20041;-61
2022/03/09 11:11:42;;;;;;;6.97;5.20;;;;;;;;;;5024409;28;20049;-61
2022/03/09 11:14:08;;;;;;;8.90;5.75;;;;;;;;;;5031531;28;20782;-62
2022/03/09 11:16:35;;;;;;;7.85;5.57;;;;;;;;;;5032440;28;20125;-61
2022/03/09 11:19:02;;;;;;;6.95;5.25;;;;;;;;;;5030635;28;20476;-61
2022/03/09 11:21:29;;;;;;;5.82;5.28;;;;;;;;;;5030193;28;20030;-62
2022/03/09 11:23:55;;;;;;;6.00;5.35;;;;;;;;;;5028861;28;20111;-62
2022/03/09 11:26:25;;;;;;;6.95;5.43;;;;;;;;;;5027989;28;20045;-61
2022/03/09 11:28:59;;;;;;;7.97;5.28;;;;;;;;;;5029947;28;20041;-61
2022/03/09 11:31:41;;;;;;;6.13;4.85;;;;;;;;;;5028075;28;20499;-62
2022/03/09 11:34:07;;;;;;;7.00;5.30;;;;;;;;;;5030158;28;20037;-62
2022/03/09 11:36:34;;;;;;;7.07;5.28;;;;;;;;;;5011486;28;20610;-62
2022/03/09 11:39:09;;;;;;;9.63;5.68;;;;;;;;;;5029253;28;20038;-61
2022/03/09 11:41:39;;;;;;;7.30;5.40;;;;;;;;;;5027841;28;20052;-60
2022/03/09 11:44:20;;;;;;;7.78;5.65;;;;;;;;;;5026499;28;20495;-62
2022/03/09 11:46:55;;;;;;;6.57;5.28;;;;;;;;;;5053858;28;20133;-62
2022/03/09 11:49:22;;;;;;;6.10;5.50;;;;;;;;;;5029269;28;20040;-61
2022/03/09 11:52:05;;;;;;;7.15;5.20;;;;;;;;;;5028497;28;20833;-63
2022/03/09 11:54:44;;;;;;;6.70;5.40;;;;;;;;;;5011094;28;20064;-63
2022/03/09 11:57:11;;;;;;;8.48;5.50;;;;;;;;;;5052528;28;20155;-60
2022/03/09 11:59:38;;;;;;;7.20;5.78;;;;;;;;;;5028759;28;20033;-63
2022/03/09 12:02:10;;;;;;;7.88;5.43;;;;;;;;;;5028302;28;20039;-61
2022/03/09 12:04:42;;;;;;;8.23;5.38;;;;;;;;;;5027821;28;20053;-61
2022/03/09 12:07:09;;;;;;;6.57;5.50;;;;;;;;;;5047974;28;20466;-62
2022/03/09 12:09:53;;;;;;;8.13;5.35;;;;;;;;;;5028600;28;20372;-61
2022/03/09 12:12:19;;;;;;;6.00;5.43;;;;;;;;;;5028313;28;21255;-63
2022/03/09 12:15:03;;;;;;;8.68;5.55;;;;;;;;;;5009628;28;20033;-61
2022/03/09 12:17:37;;;;;;;6.57;5.32;;;;;;;;;;5028044;28;20102;-62
2022/03/09 12:20:23;;;;;;;7.47;4.75;;;;;;;;;;5031882;28;20049;-62
2022/03/09 12:23:14;;;;;;;7.60;5.43;;;;;;;;;;5030632;28;20095;-62
2022/03/09 12:25:40;;;;;;;6.28;5.35;;;;;;;;;;5026681;28;20480;-62
2022/03/09 12:28:24;;;;;;;5.40;4.90;;;;;;;;;;5031305;28;20053;-62
2022/03/09 12:30:54;;;;;;;7.47;5.47;;;;;;;;;;5030282;28;20045;-62
2022/03/09 12:33:25;;;;;;;7.28;4.97;;;;;;;;;;5029789;28;20045;-62
2022/03/09 12:35:52;;;;;;;10.80;5.07;;;;;;;;;;5030005;28;20124;-63
2022/03/09 12:38:18;;;;;;;8.82;5.32;;;;;;;;;;5029934;28;20168;-63
2022/03/09 12:40:46;;;;;;;6.13;5.53;;;;;;;;;;5027660;28;20534;-62
2022/03/09 12:43:15;;;;;;;9.40;5.43;;;;;;;;;;5012347;28;20116;-63
2022/03/09 12:45:50;;;;;;;6.40;5.30;;;;;;;;;;5030264;28;20467;-62
2022/03/09 12:48:19;;;;;;;7.88;4.78;;;;;;;;;;5029546;28;20392;-62
2022/03/09 12:50:45;;;;;;;5.50;5.00;;;;;;;;;;5029789;28;20499;-61
2022/03/09 12:53:12;;;;;;;5.88;5.28;;;;;;;;;;5032048;28;20041;-60
2022/03/09 12:55:39;;;;;;;7.72;5.30;;;;;;;;;;5031610;28;20419;-61
2022/03/09 12:58:05;;;;;;;5.20;4.70;;;;;;;;;;5030254;28;20141;-61
2022/03/09 13:00:34;;;;;;;8.95;5.47;;;;;;;;;;5012614;28;20047;-61
2022/03/09 13:03:01;;;;;;;5.80;4.80;;;;;;;;;;5028160;28;20053;-61
2022/03/09 13:05:28;;;;;;;5.97;4.90;;;;;;;;;;5029094;28;20512;-61
2022/03/09 13:08:00;;;;;;;6.15;4.82;;;;;;;;;;5052792;28;20507;-61
2022/03/09 13:10:28;;;;;;;6.90;4.97;;;;;;;;;;5029369;28;20053;-61
2022/03/09 13:12:56;;;;;;;6.00;4.65;;;;;;;;;;5031025;28;20765;-62
2022/03/09 13:15:33;;;;;;;5.50;4.80;;;;;;;;;;5030050;28;20052;-61
2022/03/09 13:17:59;;;;;;;5.75;4.50;;;;;;;;;;5030904;28;20081;-60
2022/03/09 13:20:26;;;;;;;5.90;5.15;;;;;;;;;;5029579;28;20513;-60
2022/03/09 13:22:52;;;;;;;7.68;4.80;;;;;;;;;;5013613;28;20121;-60
2022/03/09 13:25:18;;;;;;;5.50;5.00;;;;;;;;;;5029040;28;20053;-62
2022/03/09 13:27:45;;;;;;;6.15;4.97;;;;;;;;;;5030842;28;20060;-61
2022/03/09 13:30:19;;;;;;;5.80;4.55;;;;;;;;;;5030420;28;20545;-60
2022/03/09 13:32:46;;;;;;;5.72;4.85;;;;;;;;;;5029609;28;20076;-61
2022/03/09 13:35:19;;;;;;;4.82;4.32;;;;;;;;;;5028721;28;20506;-60
2022/03/09 13:37:45;;;;;;;5.07;4.57;;;;;;;;;;5030526;28;20092;-61
2022/03/09 13:40:12;;;;;;;7.07;4.72;;;;;;;;;;5029563;28;20041;-61
2022/03/09 13:42:39;;;;;;;5.88;4.90;;;;;;;;;;5029594;28;20041;-61
2022/03/09 13:45:07;;;;;;;6.00;4.38;;;;;;;;;;5030130;28;20058;-60
2022/03/09 13:47:52;;;;;;;4.50;4.07;;;;;;;;;;5030391;28;20411;-61
2022/03/09 13:50:34;;;;;;;4.95;4.45;;;;;;;;;;5029949;28;20053;-60
2022/03/09 13:53:10;;;;;;;5.93;4.85;;;;;;;;;;5029536;28;20080;-61
2022/03/09 13:56:02;;;;;;;5.15;4.65;;;;;;;;;;5028854;28;20045;-60
2022/03/09 13:58:29;;;;;;;7.28;4.47;;;;;;;;;;5030054;28;20072;-61
2022/03/09 14:01:03;;;;;;;6.88;4.28;;;;;;;;;;5030666;28;20033;-61
2022/03/09 14:03:31;;;;;;;6.38;4.85;;;;;;;;;;5030367;28;20048;-61
2022/03/09 14:05:57;;;;;;;6.18;4.25;;;;;;;;;;5030513;28;20034;-61
2022/03/09 14:08:28;;;;;;;4.75;4.15;;;;;;;;;;5029508;28;20068;-60
2022/03/09 14:11:05;;;;;;;4.85;4.35;;;;;;;;;;5029050;28;20049;-61
2022/03/09 14:13:33;;;;;;;7.10;4.90;;;;;;;;;;5028801;28;20053;-60
2022/03/09 14:15:59;;;;;;;8.60;4.82;;;;;;;;;;5028808;28;20053;-60
2022/03/09 14:18:26;;;;;;;6.00;4.47;;;;;;;;;;5030062;28;20041;-61
2022/03/09 14:20:53;;;;;;;6.13;5.15;;;;;;;;;;5030009;28;20077;-61
2022/03/09 14:23:19;;;;;;;8.60;4.70;;;;;;;;;;5030260;28;20067;-60
2022/03/09 14:25:45;;;;;;;5.93;5.03;;;;;;;;;;5012211;28;20072;-61
2022/03/09 14:28:11;;;;;;;6.38;5.63;;;;;;;;;;5030531;28;20138;-60
2022/03/09 14:30:37;;;;;;;6.63;4.88;;;;;;;;;;5028915;28;20076;-61
2022/03/09 14:33:03;;;;;;;5.05;4.45;;;;;;;;;;5028496;28;20057;-60
2022/03/09 14:35:30;;;;;;;6.13;4.85;;;;;;;;;;5028406;28;20056;-61
2022/03/09 14:37:56;;;;;;;6.35;4.30;;;;;;;;;;5029629;28;20087;-61
2022/03/09 14:40:23;;;;;;;5.95;5.35;;;;;;;;;;5026947;28;20077;-61
2022/03/09 14:42:50;;;;;;;7.60;4.85;;;;;;;;;;5026154;28;20484;-61
2022/03/09 14:45:16;;;;;;;5.40;4.90;;;;;;;;;;5027309;28;20378;-62
2022/03/09 14:47:43;;;;;;;5.22;4.40;;;;;;;;;;5024939;28;20103;-62